sensor_id;sensor_type;location;lat;lon;timestamp;P1;durP1;ratioP1;P2;durP2;ratioP2
20727;SDS011;10525;50.154;8.198;2023-03-26T00:01:46;3.83;;;1.95;;
20727;SDS011;10525;50.154;8.198;2023-03-26T00:04:14;4.90;;;1.75;;
20727;SDS011;10525;50.154;8.198;2023-03-26T00:06:43;11.93;;;2.20;;
20727;SDS011;10525;50.154;8.198;2023-03-26T00:09:13;8.73;;;2.50;;
20727;SDS011;10525;50.154;8.198;2023-03-26T00:11:41;11.60;;;2.30;;
20727;SDS011;10525;50.154;8.198;2023-03-26T00:14:09;9.48;;;2.08;;
20727;SDS011;10525;50.154;8.198;2023-03-26T00:16:39;6.38;;;1.83;;
20727;SDS011;10525;50.154;8.198;2023-03-26T00:19:06;13.95;;;2.35;;
20727;SDS011;10525;50.154;8.198;2023-03-26T00:21:34;5.15;;;2.42;;
20727;SDS011;10525;50.154;8.198;2023-03-26T00:24:02;8.05;;;1.98;;
20727;SDS011;10525;50.154;8.198;2023-03-26T00:26:30;6.85;;;2.40;;
20727;SDS011;10525;50.154;8.198;2023-03-26T00:28:57;15.55;;;2.65;;
20727;SDS011;10525;50.154;8.198;2023-03-26T00:31:25;5.93;;;1.98;;
20727;SDS011;10525;50.154;8.198;2023-03-26T00:33:54;11.23;;;2.67;;
20727;SDS011;10525;50.154;8.198;2023-03-26T00:36:22;7.80;;;2.00;;
20727;SDS011;10525;50.154;8.198;2023-03-26T00:38:50;14.43;;;2.95;;
20727;SDS011;10525;50.154;8.198;2023-03-26T00:41:18;7.00;;;2.20;;
20727;SDS011;10525;50.154;8.198;2023-03-26T00:43:50;17.88;;;3.28;;
20727;SDS011;10525;50.154;8.198;2023-03-26T00:46:20;9.55;;;2.88;;
20727;SDS011;10525;50.154;8.198;2023-03-26T00:48:46;19.05;;;4.50;;
20727;SDS011;10525;50.154;8.198;2023-03-26T00:51:16;23.30;;;4.45;;
20727;SDS011;10525;50.154;8.198;2023-03-26T00:53:45;18.23;;;4.85;;
20727;SDS011;10525;50.154;8.198;2023-03-26T00:56:13;19.92;;;5.57;;
20727;SDS011;10525;50.154;8.198;2023-03-26T00:58:40;20.23;;;4.97;;
20727;SDS011;10525;50.154;8.198;2023-03-26T01:01:07;19.45;;;5.82;;
20727;SDS011;10525;50.154;8.198;2023-03-26T01:03:37;17.50;;;4.95;;
20727;SDS011;10525;50.154;8.198;2023-03-26T01:06:05;12.27;;;4.00;;
20727;SDS011;10525;50.154;8.198;2023-03-26T01:08:35;14.40;;;3.33;;
20727;SDS011;10525;50.154;8.198;2023-03-26T01:11:05;7.63;;;2.50;;
20727;SDS011;10525;50.154;8.198;2023-03-26T01:13:39;9.50;;;2.60;;
20727;SDS011;10525;50.154;8.198;2023-03-26T01:16:13;9.43;;;2.75;;
20727;SDS011;10525;50.154;8.198;2023-03-26T01:18:47;12.13;;;2.67;;
20727;SDS011;10525;50.154;8.198;2023-03-26T01:21:17;8.45;;;2.60;;
20727;SDS011;10525;50.154;8.198;2023-03-26T01:23:49;11.18;;;2.30;;
20727;SDS011;10525;50.154;8.198;2023-03-26T01:26:29;5.90;;;1.60;;
20727;SDS011;10525;50.154;8.198;2023-03-26T01:29:19;9.20;;;2.30;;
20727;SDS011;10525;50.154;8.198;2023-03-26T01:31:53;12.82;;;2.55;;
20727;SDS011;10525;50.154;8.198;2023-03-26T01:34:27;17.90;;;3.85;;
20727;SDS011;10525;50.154;8.198;2023-03-26T01:37:04;22.17;;;2.20;;
20727;SDS011;10525;50.154;8.198;2023-03-26T01:39:40;8.43;;;2.20;;
20727;SDS011;10525;50.154;8.198;2023-03-26T01:42:14;8.13;;;1.83;;
20727;SDS011;10525;50.154;8.198;2023-03-26T01:44:46;15.10;;;2.72;;
20727;SDS011;10525;50.154;8.198;2023-03-26T01:47:18;16.08;;;2.20;;
20727;SDS011;10525;50.154;8.198;2023-03-26T01:49:45;5.97;;;2.33;;
20727;SDS011;10525;50.154;8.198;2023-03-26T01:52:14;11.75;;;1.92;;
20727;SDS011;10525;50.154;8.198;2023-03-26T01:54:44;5.78;;;2.20;;
20727;SDS011;10525;50.154;8.198;2023-03-26T01:57:13;14.07;;;2.85;;
20727;SDS011;10525;50.154;8.198;2023-03-26T01:59:49;9.73;;;2.63;;
20727;SDS011;10525;50.154;8.198;2023-03-26T02:02:25;5.45;;;2.15;;
20727;SDS011;10525;50.154;8.198;2023-03-26T02:05:02;14.13;;;2.20;;
20727;SDS011;10525;50.154;8.198;2023-03-26T02:07:33;5.35;;;2.30;;
20727;SDS011;10525;50.154;8.198;2023-03-26T02:10:08;3.78;;;1.98;;
20727;SDS011;10525;50.154;8.198;2023-03-26T02:12:39;14.00;;;2.10;;
20727;SDS011;10525;50.154;8.198;2023-03-26T02:15:06;10.13;;;2.25;;
20727;SDS011;10525;50.154;8.198;2023-03-26T02:17:34;8.18;;;1.98;;
20727;SDS011;10525;50.154;8.198;2023-03-26T02:20:04;10.63;;;2.17;;
20727;SDS011;10525;50.154;8.198;2023-03-26T02:22:32;7.40;;;2.00;;
20727;SDS011;10525;50.154;8.198;2023-03-26T02:25:05;9.73;;;2.10;;
20727;SDS011;10525;50.154;8.198;2023-03-26T02:27:34;8.57;;;2.33;;
20727;SDS011;10525;50.154;8.198;2023-03-26T02:30:01;12.23;;;2.03;;
20727;SDS011;10525;50.154;8.198;2023-03-26T02:32:27;5.32;;;1.65;;
20727;SDS011;10525;50.154;8.198;2023-03-26T02:34:54;7.53;;;2.20;;
20727;SDS011;10525;50.154;8.198;2023-03-26T02:37:21;5.95;;;2.03;;
20727;SDS011;10525;50.154;8.198;2023-03-26T02:39:47;6.55;;;2.17;;
20727;SDS011;10525;50.154;8.198;2023-03-26T02:42:16;9.88;;;2.03;;
20727;SDS011;10525;50.154;8.198;2023-03-26T02:44:42;16.60;;;2.80;;
20727;SDS011;10525;50.154;8.198;2023-03-26T02:47:09;6.28;;;2.33;;
20727;SDS011;10525;50.154;8.198;2023-03-26T02:49:35;13.50;;;2.90;;
20727;SDS011;10525;50.154;8.198;2023-03-26T02:52:02;18.33;;;2.60;;
20727;SDS011;10525;50.154;8.198;2023-03-26T02:54:30;12.20;;;2.17;;
20727;SDS011;10525;50.154;8.198;2023-03-26T02:56:57;10.32;;;3.05;;
20727;SDS011;10525;50.154;8.198;2023-03-26T02:59:25;9.45;;;2.40;;
20727;SDS011;10525;50.154;8.198;2023-03-26T03:01:52;5.78;;;2.40;;
20727;SDS011;10525;50.154;8.198;2023-03-26T03:04:18;8.93;;;2.13;;
20727;SDS011;10525;50.154;8.198;2023-03-26T03:06:45;13.95;;;2.70;;
20727;SDS011;10525;50.154;8.198;2023-03-26T03:09:16;17.20;;;2.67;;
20727;SDS011;10525;50.154;8.198;2023-03-26T03:11:44;14.95;;;2.65;;
20727;SDS011;10525;50.154;8.198;2023-03-26T03:14:10;9.30;;;2.30;;
20727;SDS011;10525;50.154;8.198;2023-03-26T03:16:38;3.30;;;1.77;;
20727;SDS011;10525;50.154;8.198;2023-03-26T03:19:05;7.93;;;2.85;;
20727;SDS011;10525;50.154;8.198;2023-03-26T03:21:32;11.32;;;2.25;;
20727;SDS011;10525;50.154;8.198;2023-03-26T03:23:58;7.38;;;1.80;;
20727;SDS011;10525;50.154;8.198;2023-03-26T03:26:25;6.82;;;2.00;;
20727;SDS011;10525;50.154;8.198;2023-03-26T03:28:53;11.65;;;3.10;;
20727;SDS011;10525;50.154;8.198;2023-03-26T03:31:22;17.38;;;2.75;;
20727;SDS011;10525;50.154;8.198;2023-03-26T03:33:51;5.97;;;2.10;;
20727;SDS011;10525;50.154;8.198;2023-03-26T03:36:19;12.45;;;2.13;;
20727;SDS011;10525;50.154;8.198;2023-03-26T03:38:48;5.90;;;2.20;;
20727;SDS011;10525;50.154;8.198;2023-03-26T03:41:15;7.03;;;2.72;;
20727;SDS011;10525;50.154;8.198;2023-03-26T03:43:42;8.07;;;2.17;;
20727;SDS011;10525;50.154;8.198;2023-03-26T03:46:09;8.35;;;2.10;;
20727;SDS011;10525;50.154;8.198;2023-03-26T03:48:36;12.85;;;1.90;;
20727;SDS011;10525;50.154;8.198;2023-03-26T03:51:04;11.38;;;2.25;;
20727;SDS011;10525;50.154;8.198;2023-03-26T03:53:31;8.70;;;2.10;;
20727;SDS011;10525;50.154;8.198;2023-03-26T03:56:01;9.32;;;2.20;;
20727;SDS011;10525;50.154;8.198;2023-03-26T03:58:28;17.52;;;2.67;;
20727;SDS011;10525;50.154;8.198;2023-03-26T04:00:55;11.68;;;1.98;;
20727;SDS011;10525;50.154;8.198;2023-03-26T04:03:25;11.82;;;4.13;;
20727;SDS011;10525;50.154;8.198;2023-03-26T04:05:52;3.70;;;1.85;;
20727;SDS011;10525;50.154;8.198;2023-03-26T04:08:21;10.85;;;2.08;;
20727;SDS011;10525;50.154;8.198;2023-03-26T04:10:49;9.55;;;2.40;;
20727;SDS011;10525;50.154;8.198;2023-03-26T04:13:16;9.30;;;1.90;;
20727;SDS011;10525;50.154;8.198;2023-03-26T04:15:43;6.80;;;2.10;;
20727;SDS011;10525;50.154;8.198;2023-03-26T04:18:09;5.10;;;1.73;;
20727;SDS011;10525;50.154;8.198;2023-03-26T04:20:36;15.65;;;2.22;;
20727;SDS011;10525;50.154;8.198;2023-03-26T04:23:06;7.03;;;2.10;;
20727;SDS011;10525;50.154;8.198;2023-03-26T04:25:39;15.80;;;2.67;;
20727;SDS011;10525;50.154;8.198;2023-03-26T04:28:06;12.25;;;2.08;;
20727;SDS011;10525;50.154;8.198;2023-03-26T04:30:35;16.65;;;2.05;;
20727;SDS011;10525;50.154;8.198;2023-03-26T04:33:07;8.32;;;2.42;;
20727;SDS011;10525;50.154;8.198;2023-03-26T04:35:39;7.50;;;1.98;;
20727;SDS011;10525;50.154;8.198;2023-03-26T04:38:08;14.27;;;2.20;;
20727;SDS011;10525;50.154;8.198;2023-03-26T04:40:36;13.65;;;2.25;;
20727;SDS011;10525;50.154;8.198;2023-03-26T04:43:04;8.43;;;2.70;;
20727;SDS011;10525;50.154;8.198;2023-03-26T04:45:32;12.05;;;2.50;;
20727;SDS011;10525;50.154;8.198;2023-03-26T04:47:59;5.03;;;1.90;;
20727;SDS011;10525;50.154;8.198;2023-03-26T04:50:26;11.88;;;2.92;;
20727;SDS011;10525;50.154;8.198;2023-03-26T04:52:53;8.38;;;2.22;;
20727;SDS011;10525;50.154;8.198;2023-03-26T04:55:22;5.85;;;2.00;;
20727;SDS011;10525;50.154;8.198;2023-03-26T04:57:52;12.90;;;2.75;;
20727;SDS011;10525;50.154;8.198;2023-03-26T05:00:22;10.48;;;2.47;;
20727;SDS011;10525;50.154;8.198;2023-03-26T05:02:49;14.07;;;3.00;;
20727;SDS011;10525;50.154;8.198;2023-03-26T05:05:20;8.65;;;2.80;;
20727;SDS011;10525;50.154;8.198;2023-03-26T05:07:47;13.95;;;2.53;;
20727;SDS011;10525;50.154;8.198;2023-03-26T05:10:14;6.47;;;2.50;;
20727;SDS011;10525;50.154;8.198;2023-03-26T05:12:41;13.35;;;3.38;;
20727;SDS011;10525;50.154;8.198;2023-03-26T05:15:09;6.57;;;2.40;;
20727;SDS011;10525;50.154;8.198;2023-03-26T05:17:38;3.03;;;2.28;;
20727;SDS011;10525;50.154;8.198;2023-03-26T05:20:07;15.18;;;2.67;;
20727;SDS011;10525;50.154;8.198;2023-03-26T05:22:41;6.70;;;2.63;;
20727;SDS011;10525;50.154;8.198;2023-03-26T05:25:08;13.30;;;3.28;;
20727;SDS011;10525;50.154;8.198;2023-03-26T05:27:34;8.63;;;2.63;;
20727;SDS011;10525;50.154;8.198;2023-03-26T05:30:02;6.28;;;2.53;;
20727;SDS011;10525;50.154;8.198;2023-03-26T05:32:31;13.82;;;3.35;;
20727;SDS011;10525;50.154;8.198;2023-03-26T05:35:00;10.85;;;3.15;;
20727;SDS011;10525;50.154;8.198;2023-03-26T05:37:28;16.75;;;3.13;;
20727;SDS011;10525;50.154;8.198;2023-03-26T05:39:55;16.20;;;3.28;;
20727;SDS011;10525;50.154;8.198;2023-03-26T05:42:22;15.60;;;3.13;;
20727;SDS011;10525;50.154;8.198;2023-03-26T05:44:49;10.98;;;2.60;;
20727;SDS011;10525;50.154;8.198;2023-03-26T05:47:16;9.98;;;2.90;;
20727;SDS011;10525;50.154;8.198;2023-03-26T05:49:43;11.30;;;3.30;;
20727;SDS011;10525;50.154;8.198;2023-03-26T05:52:12;17.98;;;3.45;;
20727;SDS011;10525;50.154;8.198;2023-03-26T05:54:40;21.75;;;3.47;;
20727;SDS011;10525;50.154;8.198;2023-03-26T05:57:07;16.95;;;3.05;;
20727;SDS011;10525;50.154;8.198;2023-03-26T05:59:33;13.23;;;2.83;;
20727;SDS011;10525;50.154;8.198;2023-03-26T06:02:00;9.85;;;2.85;;
20727;SDS011;10525;50.154;8.198;2023-03-26T06:04:27;8.15;;;2.22;;
20727;SDS011;10525;50.154;8.198;2023-03-26T06:06:55;6.15;;;2.42;;
20727;SDS011;10525;50.154;8.198;2023-03-26T06:09:23;8.18;;;2.80;;
20727;SDS011;10525;50.154;8.198;2023-03-26T06:11:50;9.95;;;3.88;;
20727;SDS011;10525;50.154;8.198;2023-03-26T06:14:17;9.30;;;4.20;;
20727;SDS011;10525;50.154;8.198;2023-03-26T06:16:44;18.73;;;4.75;;
20727;SDS011;10525;50.154;8.198;2023-03-26T06:19:10;8.45;;;3.75;;
20727;SDS011;10525;50.154;8.198;2023-03-26T06:21:37;12.50;;;4.07;;
20727;SDS011;10525;50.154;8.198;2023-03-26T06:24:04;16.77;;;4.72;;
20727;SDS011;10525;50.154;8.198;2023-03-26T06:26:32;14.57;;;4.63;;
20727;SDS011;10525;50.154;8.198;2023-03-26T06:28:59;10.75;;;4.93;;
20727;SDS011;10525;50.154;8.198;2023-03-26T06:31:26;11.15;;;4.47;;
20727;SDS011;10525;50.154;8.198;2023-03-26T06:33:53;13.20;;;4.53;;
20727;SDS011;10525;50.154;8.198;2023-03-26T06:36:20;11.82;;;4.22;;
20727;SDS011;10525;50.154;8.198;2023-03-26T06:38:46;9.02;;;4.50;;
20727;SDS011;10525;50.154;8.198;2023-03-26T06:41:13;7.35;;;4.00;;
20727;SDS011;10525;50.154;8.198;2023-03-26T06:43:41;5.28;;;3.75;;
20727;SDS011;10525;50.154;8.198;2023-03-26T06:46:08;8.65;;;4.00;;
20727;SDS011;10525;50.154;8.198;2023-03-26T06:48:35;5.28;;;3.45;;
20727;SDS011;10525;50.154;8.198;2023-03-26T06:51:02;11.40;;;4.15;;
20727;SDS011;10525;50.154;8.198;2023-03-26T06:53:29;7.05;;;4.32;;
20727;SDS011;10525;50.154;8.198;2023-03-26T06:55:56;6.70;;;4.10;;
20727;SDS011;10525;50.154;8.198;2023-03-26T06:58:23;8.65;;;4.75;;
20727;SDS011;10525;50.154;8.198;2023-03-26T07:00:52;11.15;;;4.60;;
20727;SDS011;10525;50.154;8.198;2023-03-26T07:03:19;10.45;;;4.30;;
20727;SDS011;10525;50.154;8.198;2023-03-26T07:05:47;12.82;;;4.88;;
20727;SDS011;10525;50.154;8.198;2023-03-26T07:08:13;12.23;;;4.43;;
20727;SDS011;10525;50.154;8.198;2023-03-26T07:10:41;9.32;;;4.95;;
20727;SDS011;10525;50.154;8.198;2023-03-26T07:13:07;9.15;;;5.05;;
20727;SDS011;10525;50.154;8.198;2023-03-26T07:15:34;7.47;;;5.05;;
20727;SDS011;10525;50.154;8.198;2023-03-26T07:18:02;7.65;;;4.07;;
20727;SDS011;10525;50.154;8.198;2023-03-26T07:20:30;10.48;;;4.75;;
20727;SDS011;10525;50.154;8.198;2023-03-26T07:22:57;9.82;;;4.57;;
20727;SDS011;10525;50.154;8.198;2023-03-26T07:25:24;9.93;;;4.43;;
20727;SDS011;10525;50.154;8.198;2023-03-26T07:27:54;7.05;;;4.47;;
20727;SDS011;10525;50.154;8.198;2023-03-26T07:30:29;6.93;;;4.95;;
20727;SDS011;10525;50.154;8.198;2023-03-26T07:33:07;7.85;;;5.50;;
20727;SDS011;10525;50.154;8.198;2023-03-26T07:35:40;7.82;;;4.15;;
20727;SDS011;10525;50.154;8.198;2023-03-26T07:38:15;9.10;;;4.20;;
20727;SDS011;10525;50.154;8.198;2023-03-26T07:40:58;9.30;;;5.03;;
20727;SDS011;10525;50.154;8.198;2023-03-26T07:43:36;13.45;;;4.78;;
20727;SDS011;10525;50.154;8.198;2023-03-26T07:46:10;4.53;;;4.03;;
20727;SDS011;10525;50.154;8.198;2023-03-26T07:48:41;4.72;;;3.40;;
20727;SDS011;10525;50.154;8.198;2023-03-26T07:51:09;10.10;;;3.63;;
20727;SDS011;10525;50.154;8.198;2023-03-26T07:53:37;6.70;;;3.83;;
20727;SDS011;10525;50.154;8.198;2023-03-26T07:56:06;11.98;;;3.92;;
20727;SDS011;10525;50.154;8.198;2023-03-26T07:58:41;4.97;;;3.72;;
20727;SDS011;10525;50.154;8.198;2023-03-26T08:01:18;6.00;;;3.35;;
20727;SDS011;10525;50.154;8.198;2023-03-26T08:03:54;3.88;;;3.38;;
20727;SDS011;10525;50.154;8.198;2023-03-26T08:06:34;3.50;;;3.30;;
20727;SDS011;10525;50.154;8.198;2023-03-26T08:09:05;4.90;;;3.42;;
20727;SDS011;10525;50.154;8.198;2023-03-26T08:11:42;3.33;;;3.03;;
20727;SDS011;10525;50.154;8.198;2023-03-26T08:14:21;3.88;;;3.17;;
20727;SDS011;10525;50.154;8.198;2023-03-26T08:16:57;6.50;;;3.10;;
20727;SDS011;10525;50.154;8.198;2023-03-26T08:19:34;5.95;;;2.42;;
20727;SDS011;10525;50.154;8.198;2023-03-26T08:22:07;7.25;;;3.08;;
20727;SDS011;10525;50.154;8.198;2023-03-26T08:24:41;3.40;;;2.75;;
20727;SDS011;10525;50.154;8.198;2023-03-26T08:27:18;2.35;;;1.98;;
20727;SDS011;10525;50.154;8.198;2023-03-26T08:29:50;2.15;;;1.95;;
20727;SDS011;10525;50.154;8.198;2023-03-26T08:32:25;4.63;;;2.30;;
20727;SDS011;10525;50.154;8.198;2023-03-26T08:34:54;2.28;;;2.08;;
20727;SDS011;10525;50.154;8.198;2023-03-26T08:37:24;2.42;;;2.30;;
20727;SDS011;10525;50.154;8.198;2023-03-26T08:39:51;4.40;;;2.97;;
20727;SDS011;10525;50.154;8.198;2023-03-26T08:42:31;3.72;;;2.28;;
20727;SDS011;10525;50.154;8.198;2023-03-26T08:45:42;5.47;;;2.30;;
20727;SDS011;10525;50.154;8.198;2023-03-26T08:54:55;5.07;;;2.00;;
20727;SDS011;10525;50.154;8.198;2023-03-26T09:00:40;3.95;;;2.10;;
20727;SDS011;10525;50.154;8.198;2023-03-26T09:03:46;1.70;;;1.70;;
20727;SDS011;10525;50.154;8.198;2023-03-26T09:06:43;4.00;;;2.15;;
20727;SDS011;10525;50.154;8.198;2023-03-26T09:09:52;3.67;;;1.90;;
20727;SDS011;10525;50.154;8.198;2023-03-26T09:18:52;4.20;;;2.13;;
20727;SDS011;10525;50.154;8.198;2023-03-26T09:24:47;3.40;;;2.30;;
20727;SDS011;10525;50.154;8.198;2023-03-26T09:27:40;1.67;;;1.67;;
20727;SDS011;10525;50.154;8.198;2023-03-26T09:30:40;2.42;;;1.70;;
20727;SDS011;10525;50.154;8.198;2023-03-26T09:33:31;1.73;;;1.70;;
20727;SDS011;10525;50.154;8.198;2023-03-26T09:36:17;6.93;;;2.40;;
20727;SDS011;10525;50.154;8.198;2023-03-26T09:38:48;6.82;;;2.00;;
20727;SDS011;10525;50.154;8.198;2023-03-26T09:41:23;6.10;;;2.60;;
20727;SDS011;10525;50.154;8.198;2023-03-26T09:44:10;4.07;;;2.13;;
20727;SDS011;10525;50.154;8.198;2023-03-26T09:47:13;4.00;;;2.10;;
20727;SDS011;10525;50.154;8.198;2023-03-26T09:50:14;4.97;;;2.17;;
20727;SDS011;10525;50.154;8.198;2023-03-26T09:52:58;2.67;;;2.20;;
20727;SDS011;10525;50.154;8.198;2023-03-26T09:55:48;4.68;;;2.00;;
20727;SDS011;10525;50.154;8.198;2023-03-26T09:58:32;4.95;;;2.53;;
20727;SDS011;10525;50.154;8.198;2023-03-26T10:01:24;5.57;;;2.30;;
20727;SDS011;10525;50.154;8.198;2023-03-26T10:03:57;5.28;;;2.60;;
20727;SDS011;10525;50.154;8.198;2023-03-26T10:06:42;5.32;;;2.38;;
20727;SDS011;10525;50.154;8.198;2023-03-26T10:09:24;7.85;;;2.22;;
20727;SDS011;10525;50.154;8.198;2023-03-26T10:12:08;5.35;;;2.60;;
20727;SDS011;10525;50.154;8.198;2023-03-26T10:14:45;4.28;;;2.00;;
20727;SDS011;10525;50.154;8.198;2023-03-26T10:17:25;4.03;;;2.15;;
20727;SDS011;10525;50.154;8.198;2023-03-26T10:20:24;5.88;;;2.13;;
20727;SDS011;10525;50.154;8.198;2023-03-26T10:23:00;6.47;;;2.10;;
20727;SDS011;10525;50.154;8.198;2023-03-26T10:25:47;2.58;;;2.38;;
20727;SDS011;10525;50.154;8.198;2023-03-26T10:28:31;5.47;;;2.88;;
20727;SDS011;10525;50.154;8.198;2023-03-26T10:31:24;9.13;;;2.90;;
20727;SDS011;10525;50.154;8.198;2023-03-26T10:34:03;4.07;;;2.75;;
20727;SDS011;10525;50.154;8.198;2023-03-26T10:36:55;2.85;;;2.45;;
20727;SDS011;10525;50.154;8.198;2023-03-26T10:42:39;3.10;;;2.30;;
20727;SDS011;10525;50.154;8.198;2023-03-26T10:45:29;5.65;;;2.30;;
20727;SDS011;10525;50.154;8.198;2023-03-26T10:48:12;3.92;;;2.28;;
20727;SDS011;10525;50.154;8.198;2023-03-26T10:50:53;7.10;;;2.13;;
20727;SDS011;10525;50.154;8.198;2023-03-26T10:53:33;3.90;;;1.88;;
20727;SDS011;10525;50.154;8.198;2023-03-26T10:56:08;4.32;;;2.08;;
20727;SDS011;10525;50.154;8.198;2023-03-26T10:58:42;3.38;;;1.80;;
20727;SDS011;10525;50.154;8.198;2023-03-26T11:01:11;3.38;;;2.10;;
20727;SDS011;10525;50.154;8.198;2023-03-26T11:03:47;5.78;;;4.22;;
20727;SDS011;10525;50.154;8.198;2023-03-26T11:06:25;2.08;;;1.60;;
20727;SDS011;10525;50.154;8.198;2023-03-26T11:09:05;3.80;;;1.92;;
20727;SDS011;10525;50.154;8.198;2023-03-26T11:11:41;38.70;;;13.15;;
20727;SDS011;10525;50.154;8.198;2023-03-26T11:14:15;3.35;;;2.17;;
20727;SDS011;10525;50.154;8.198;2023-03-26T11:16:52;5.40;;;1.80;;
20727;SDS011;10525;50.154;8.198;2023-03-26T11:19:29;1.48;;;1.38;;
20727;SDS011;10525;50.154;8.198;2023-03-26T11:22:07;1.92;;;1.33;;
20727;SDS011;10525;50.154;8.198;2023-03-26T11:24:48;1.67;;;1.58;;
20727;SDS011;10525;50.154;8.198;2023-03-26T11:27:44;1.45;;;1.27;;
20727;SDS011;10525;50.154;8.198;2023-03-26T11:30:20;3.03;;;1.30;;
20727;SDS011;10525;50.154;8.198;2023-03-26T11:32:55;1.85;;;1.63;;
20727;SDS011;10525;50.154;8.198;2023-03-26T11:35:26;5.05;;;1.25;;
20727;SDS011;10525;50.154;8.198;2023-03-26T11:37:57;2.78;;;1.20;;
20727;SDS011;10525;50.154;8.198;2023-03-26T11:40:30;0.98;;;0.98;;
20727;SDS011;10525;50.154;8.198;2023-03-26T11:43:01;2.28;;;1.10;;
20727;SDS011;10525;50.154;8.198;2023-03-26T11:45:30;1.35;;;1.20;;
20727;SDS011;10525;50.154;8.198;2023-03-26T11:48:02;1.50;;;1.30;;
20727;SDS011;10525;50.154;8.198;2023-03-26T11:50:35;1.42;;;1.08;;
20727;SDS011;10525;50.154;8.198;2023-03-26T11:53:09;1.00;;;1.00;;
20727;SDS011;10525;50.154;8.198;2023-03-26T11:55:38;2.65;;;1.00;;
20727;SDS011;10525;50.154;8.198;2023-03-26T11:58:11;1.85;;;0.80;;
20727;SDS011;10525;50.154;8.198;2023-03-26T12:00:48;0.90;;;0.90;;
20727;SDS011;10525;50.154;8.198;2023-03-26T12:03:17;1.20;;;1.08;;
20727;SDS011;10525;50.154;8.198;2023-03-26T12:05:47;3.72;;;1.02;;
20727;SDS011;10525;50.154;8.198;2023-03-26T12:08:20;1.90;;;1.20;;
20727;SDS011;10525;50.154;8.198;2023-03-26T12:10:59;1.30;;;1.20;;
20727;SDS011;10525;50.154;8.198;2023-03-26T12:13:34;0.80;;;0.80;;
20727;SDS011;10525;50.154;8.198;2023-03-26T12:16:05;0.90;;;0.90;;
20727;SDS011;10525;50.154;8.198;2023-03-26T12:18:38;1.20;;;0.90;;
20727;SDS011;10525;50.154;8.198;2023-03-26T12:21:09;1.17;;;0.98;;
20727;SDS011;10525;50.154;8.198;2023-03-26T12:23:50;0.70;;;0.70;;
20727;SDS011;10525;50.154;8.198;2023-03-26T12:26:27;1.40;;;0.80;;
20727;SDS011;10525;50.154;8.198;2023-03-26T12:28:58;0.70;;;0.70;;
20727;SDS011;10525;50.154;8.198;2023-03-26T12:31:39;0.90;;;0.88;;
20727;SDS011;10525;50.154;8.198;2023-03-26T12:34:12;0.70;;;0.70;;
20727;SDS011;10525;50.154;8.198;2023-03-26T12:36:47;0.82;;;0.82;;
20727;SDS011;10525;50.154;8.198;2023-03-26T12:39:29;1.23;;;0.95;;
20727;SDS011;10525;50.154;8.198;2023-03-26T12:41:58;1.15;;;0.90;;
20727;SDS011;10525;50.154;8.198;2023-03-26T12:44:27;2.63;;;0.90;;
20727;SDS011;10525;50.154;8.198;2023-03-26T12:47:09;1.55;;;1.02;;
20727;SDS011;10525;50.154;8.198;2023-03-26T12:49:40;1.40;;;0.93;;
20727;SDS011;10525;50.154;8.198;2023-03-26T12:52:20;1.65;;;1.00;;
20727;SDS011;10525;50.154;8.198;2023-03-26T12:54:57;1.75;;;0.80;;
20727;SDS011;10525;50.154;8.198;2023-03-26T12:57:31;1.00;;;1.00;;
20727;SDS011;10525;50.154;8.198;2023-03-26T13:00:11;0.80;;;0.70;;
20727;SDS011;10525;50.154;8.198;2023-03-26T13:02:58;0.90;;;0.90;;
20727;SDS011;10525;50.154;8.198;2023-03-26T13:05:48;1.05;;;1.02;;
20727;SDS011;10525;50.154;8.198;2023-03-26T13:08:38;0.90;;;0.90;;
20727;SDS011;10525;50.154;8.198;2023-03-26T13:11:18;1.08;;;1.02;;
20727;SDS011;10525;50.154;8.198;2023-03-26T13:13:54;1.20;;;0.98;;
20727;SDS011;10525;50.154;8.198;2023-03-26T13:16:32;0.70;;;0.70;;
20727;SDS011;10525;50.154;8.198;2023-03-26T13:19:04;1.75;;;0.70;;
20727;SDS011;10525;50.154;8.198;2023-03-26T13:21:37;3.50;;;0.93;;
20727;SDS011;10525;50.154;8.198;2023-03-26T13:24:18;5.53;;;0.90;;
20727;SDS011;10525;50.154;8.198;2023-03-26T13:26:59;1.27;;;1.10;;
20727;SDS011;10525;50.154;8.198;2023-03-26T13:29:39;0.93;;;0.93;;
20727;SDS011;10525;50.154;8.198;2023-03-26T13:32:21;1.17;;;0.77;;
20727;SDS011;10525;50.154;8.198;2023-03-26T13:34:58;0.80;;;0.80;;
20727;SDS011;10525;50.154;8.198;2023-03-26T13:37:35;2.67;;;0.80;;
20727;SDS011;10525;50.154;8.198;2023-03-26T13:40:13;0.70;;;0.70;;
20727;SDS011;10525;50.154;8.198;2023-03-26T13:42:49;1.55;;;0.80;;
20727;SDS011;10525;50.154;8.198;2023-03-26T13:45:34;0.88;;;0.88;;
20727;SDS011;10525;50.154;8.198;2023-03-26T13:48:12;0.60;;;0.60;;
20727;SDS011;10525;50.154;8.198;2023-03-26T13:50:44;0.60;;;0.60;;
20727;SDS011;10525;50.154;8.198;2023-03-26T13:53:20;0.70;;;0.70;;
20727;SDS011;10525;50.154;8.198;2023-03-26T13:55:53;0.93;;;0.93;;
20727;SDS011;10525;50.154;8.198;2023-03-26T13:58:23;0.70;;;0.70;;
20727;SDS011;10525;50.154;8.198;2023-03-26T14:00:55;1.48;;;0.95;;
20727;SDS011;10525;50.154;8.198;2023-03-26T14:03:28;1.55;;;0.80;;
20727;SDS011;10525;50.154;8.198;2023-03-26T14:06:05;0.80;;;0.80;;
20727;SDS011;10525;50.154;8.198;2023-03-26T14:08:36;1.00;;;1.00;;
20727;SDS011;10525;50.154;8.198;2023-03-26T14:11:09;0.80;;;0.80;;
20727;SDS011;10525;50.154;8.198;2023-03-26T14:13:40;0.90;;;0.90;;
20727;SDS011;10525;50.154;8.198;2023-03-26T14:16:13;4.03;;;1.00;;
20727;SDS011;10525;50.154;8.198;2023-03-26T14:18:45;0.70;;;0.70;;
20727;SDS011;10525;50.154;8.198;2023-03-26T14:24:22;0.80;;;0.80;;
20727;SDS011;10525;50.154;8.198;2023-03-26T14:27:06;0.90;;;0.90;;
20727;SDS011;10525;50.154;8.198;2023-03-26T14:29:58;5.45;;;0.90;;
20727;SDS011;10525;50.154;8.198;2023-03-26T14:32:49;0.90;;;0.90;;
20727;SDS011;10525;50.154;8.198;2023-03-26T14:35:30;0.70;;;0.70;;
20727;SDS011;10525;50.154;8.198;2023-03-26T14:38:05;3.50;;;1.10;;
20727;SDS011;10525;50.154;8.198;2023-03-26T14:41:00;3.30;;;0.80;;
20727;SDS011;10525;50.154;8.198;2023-03-26T14:46:58;2.38;;;0.90;;
20727;SDS011;10525;50.154;8.198;2023-03-26T14:49:40;1.83;;;1.23;;
20727;SDS011;10525;50.154;8.198;2023-03-26T14:52:45;0.80;;;0.80;;
20727;SDS011;10525;50.154;8.198;2023-03-26T14:55:15;1.13;;;0.93;;
20727;SDS011;10525;50.154;8.198;2023-03-26T14:58:02;3.25;;;0.98;;
20727;SDS011;10525;50.154;8.198;2023-03-26T15:10:14;1.02;;;0.85;;
20727;SDS011;10525;50.154;8.198;2023-03-26T15:13:00;1.48;;;1.02;;
20727;SDS011;10525;50.154;8.198;2023-03-26T15:15:48;0.50;;;0.50;;
20727;SDS011;10525;50.154;8.198;2023-03-26T15:18:49;0.82;;;0.82;;
20727;SDS011;10525;50.154;8.198;2023-03-26T15:24:43;0.77;;;0.77;;
20727;SDS011;10525;50.154;8.198;2023-03-26T15:27:35;1.42;;;0.85;;
20727;SDS011;10525;50.154;8.198;2023-03-26T15:30:16;1.27;;;1.08;;
20727;SDS011;10525;50.154;8.198;2023-03-26T15:33:20;1.65;;;1.00;;
20727;SDS011;10525;50.154;8.198;2023-03-26T15:39:25;0.95;;;0.88;;
20727;SDS011;10525;50.154;8.198;2023-03-26T15:42:20;4.22;;;1.20;;
20727;SDS011;10525;50.154;8.198;2023-03-26T15:44:55;0.95;;;0.95;;
20727;SDS011;10525;50.154;8.198;2023-03-26T15:47:36;1.05;;;1.05;;
20727;SDS011;10525;50.154;8.198;2023-03-26T15:53:12;1.38;;;1.38;;
20727;SDS011;10525;50.154;8.198;2023-03-26T15:55:54;1.55;;;1.55;;
20727;SDS011;10525;50.154;8.198;2023-03-26T15:58:29;1.92;;;1.83;;
20727;SDS011;10525;50.154;8.198;2023-03-26T16:01:04;1.80;;;1.80;;
20727;SDS011;10525;50.154;8.198;2023-03-26T16:03:46;1.80;;;1.70;;
20727;SDS011;10525;50.154;8.198;2023-03-26T16:06:26;4.20;;;2.40;;
20727;SDS011;10525;50.154;8.198;2023-03-26T16:09:13;1.67;;;1.58;;
20727;SDS011;10525;50.154;8.198;2023-03-26T16:11:53;1.48;;;1.02;;